sensor_id;sensor_type;location;lat;lon;timestamp;temperature;humidity
52859;DHT22;38721;53.098;6.596;2023-11-19T00:02:21;11.70;99.90
52859;DHT22;38721;53.098;6.596;2023-11-19T00:04:47;11.80;99.90
52859;DHT22;38721;53.098;6.596;2023-11-19T00:07:16;11.90;99.90
52859;DHT22;38721;53.098;6.596;2023-11-19T00:09:42;11.90;99.90
52859;DHT22;38721;53.098;6.596;2023-11-19T00:12:09;12.00;99.90
52859;DHT22;38721;53.098;6.596;2023-11-19T00:14:34;11.90;99.90
52859;DHT22;38721;53.098;6.596;2023-11-19T00:17:00;11.80;99.90
52859;DHT22;38721;53.098;6.596;2023-11-19T00:19:26;12.00;99.90
52859;DHT22;38721;53.098;6.596;2023-11-19T00:21:52;12.00;99.90
52859;DHT22;38721;53.098;6.596;2023-11-19T00:24:18;12.00;99.90
52859;DHT22;38721;53.098;6.596;2023-11-19T00:26:44;12.10;99.90
52859;DHT22;38721;53.098;6.596;2023-11-19T00:29:10;12.10;99.90
52859;DHT22;38721;53.098;6.596;2023-11-19T00:31:36;12.20;99.90
52859;DHT22;38721;53.098;6.596;2023-11-19T00:34:02;12.40;99.90
52859;DHT22;38721;53.098;6.596;2023-11-19T00:36:28;12.40;99.90
52859;DHT22;38721;53.098;6.596;2023-11-19T00:38:54;12.30;99.90
52859;DHT22;38721;53.098;6.596;2023-11-19T00:41:20;12.50;99.90
52859;DHT22;38721;53.098;6.596;2023-11-19T00:43:46;12.40;99.90
52859;DHT22;38721;53.098;6.596;2023-11-19T00:46:11;12.60;99.90
52859;DHT22;38721;53.098;6.596;2023-11-19T00:48:37;12.70;99.90
52859;DHT22;38721;53.098;6.596;2023-11-19T00:51:03;12.70;99.90
52859;DHT22;38721;53.098;6.596;2023-11-19T00:53:30;12.90;99.90
52859;DHT22;38721;53.098;6.596;2023-11-19T00:55:56;12.70;99.90
52859;DHT22;38721;53.098;6.596;2023-11-19T00:58:22;12.70;99.90
52859;DHT22;38721;53.098;6.596;2023-11-19T01:00:48;12.90;99.90
52859;DHT22;38721;53.098;6.596;2023-11-19T01:03:13;12.90;99.90
52859;DHT22;38721;53.098;6.596;2023-11-19T01:05:41;12.90;99.90
52859;DHT22;38721;53.098;6.596;2023-11-19T01:08:07;12.80;99.90
52859;DHT22;38721;53.098;6.596;2023-11-19T01:10:33;13.00;99.90
52859;DHT22;38721;53.098;6.596;2023-11-19T01:12:59;13.00;99.90
52859;DHT22;38721;53.098;6.596;2023-11-19T01:15:25;12.90;99.90
52859;DHT22;38721;53.098;6.596;2023-11-19T01:17:51;12.90;99.90
52859;DHT22;38721;53.098;6.596;2023-11-19T01:20:17;13.00;99.90
52859;DHT22;38721;53.098;6.596;2023-11-19T01:22:46;12.90;99.90
52859;DHT22;38721;53.098;6.596;2023-11-19T01:25:14;13.10;99.90
52859;DHT22;38721;53.098;6.596;2023-11-19T01:27:39;13.00;99.90
52859;DHT22;38721;53.098;6.596;2023-11-19T01:30:05;13.00;99.90
52859;DHT22;38721;53.098;6.596;2023-11-19T01:32:35;13.10;99.90
52859;DHT22;38721;53.098;6.596;2023-11-19T01:35:03;13.00;99.90
52859;DHT22;38721;53.098;6.596;2023-11-19T01:37:29;13.10;99.90
52859;DHT22;38721;53.098;6.596;2023-11-19T01:39:56;12.90;99.90
52859;DHT22;38721;53.098;6.596;2023-11-19T01:42:23;13.00;99.90
52859;DHT22;38721;53.098;6.596;2023-11-19T01:45:01;13.00;99.90
52859;DHT22;38721;53.098;6.596;2023-11-19T01:47:27;13.10;99.90
52859;DHT22;38721;53.098;6.596;2023-11-19T01:49:54;13.00;99.90
52859;DHT22;38721;53.098;6.596;2023-11-19T01:52:21;13.00;99.90
52859;DHT22;38721;53.098;6.596;2023-11-19T01:54:47;12.90;99.90
52859;DHT22;38721;53.098;6.596;2023-11-19T01:57:14;12.90;99.90
52859;DHT22;38721;53.098;6.596;2023-11-19T01:59:40;12.90;99.90
52859;DHT22;38721;53.098;6.596;2023-11-19T02:02:07;13.00;99.90
52859;DHT22;38721;53.098;6.596;2023-11-19T02:04:33;13.00;99.90
52859;DHT22;38721;53.098;6.596;2023-11-19T02:07:00;12.90;99.90
52859;DHT22;38721;53.098;6.596;2023-11-19T02:09:29;12.80;99.90
52859;DHT22;38721;53.098;6.596;2023-11-19T02:11:55;12.90;99.90
52859;DHT22;38721;53.098;6.596;2023-11-19T02:14:25;12.70;99.90
52859;DHT22;38721;53.098;6.596;2023-11-19T02:16:51;12.90;99.90
52859;DHT22;38721;53.098;6.596;2023-11-19T02:19:20;12.70;99.90
52859;DHT22;38721;53.098;6.596;2023-11-19T02:21:46;12.90;99.90
52859;DHT22;38721;53.098;6.596;2023-11-19T02:24:14;12.80;99.90
52859;DHT22;38721;53.098;6.596;2023-11-19T02:26:58;12.70;99.90
52859;DHT22;38721;53.098;6.596;2023-11-19T02:29:24;12.80;99.90
52859;DHT22;38721;53.098;6.596;2023-11-19T02:31:50;12.70;99.90
52859;DHT22;38721;53.098;6.596;2023-11-19T02:34:15;12.70;99.90
52859;DHT22;38721;53.098;6.596;2023-11-19T02:36:41;12.90;99.90
52859;DHT22;38721;53.098;6.596;2023-11-19T02:39:07;12.90;99.90
52859;DHT22;38721;53.098;6.596;2023-11-19T02:41:36;12.80;99.90
52859;DHT22;38721;53.098;6.596;2023-11-19T02:44:06;12.90;99.90
52859;DHT22;38721;53.098;6.596;2023-11-19T02:46:32;12.80;99.90
52859;DHT22;38721;53.098;6.596;2023-11-19T02:48:57;12.80;99.90
52859;DHT22;38721;53.098;6.596;2023-11-19T02:51:23;12.90;99.90
52859;DHT22;38721;53.098;6.596;2023-11-19T02:53:49;12.80;99.90
52859;DHT22;38721;53.098;6.596;2023-11-19T02:56:14;12.80;99.90
52859;DHT22;38721;53.098;6.596;2023-11-19T02:58:51;12.80;99.90
52859;DHT22;38721;53.098;6.596;2023-11-19T03:01:24;12.70;99.90
52859;DHT22;38721;53.098;6.596;2023-11-19T03:03:56;12.70;99.90
52859;DHT22;38721;53.098;6.596;2023-11-19T03:06:22;12.80;99.90
52859;DHT22;38721;53.098;6.596;2023-11-19T03:08:48;12.80;99.90
52859;DHT22;38721;53.098;6.596;2023-11-19T03:11:14;12.70;99.90
52859;DHT22;38721;53.098;6.596;2023-11-19T03:13:40;12.70;99.90
52859;DHT22;38721;53.098;6.596;2023-11-19T03:16:06;12.60;99.90
52859;DHT22;38721;53.098;6.596;2023-11-19T03:18:32;12.60;99.90
52859;DHT22;38721;53.098;6.596;2023-11-19T03:20:58;12.70;99.90
52859;DHT22;38721;53.098;6.596;2023-11-19T03:23:24;12.60;99.90
52859;DHT22;38721;53.098;6.596;2023-11-19T03:25:53;12.70;99.90
52859;DHT22;38721;53.098;6.596;2023-11-19T03:28:19;12.50;99.90
52859;DHT22;38721;53.098;6.596;2023-11-19T03:30:44;12.50;99.90
52859;DHT22;38721;53.098;6.596;2023-11-19T03:33:10;12.60;99.90
52859;DHT22;38721;53.098;6.596;2023-11-19T03:35:36;12.50;99.90
52859;DHT22;38721;53.098;6.596;2023-11-19T03:38:01;12.60;99.90
52859;DHT22;38721;53.098;6.596;2023-11-19T03:40:28;12.40;99.90
52859;DHT22;38721;53.098;6.596;2023-11-19T03:42:56;12.50;99.90
52859;DHT22;38721;53.098;6.596;2023-11-19T03:45:22;12.50;99.90
52859;DHT22;38721;53.098;6.596;2023-11-19T03:47:48;12.40;99.90
52859;DHT22;38721;53.098;6.596;2023-11-19T03:50:15;12.50;99.90
52859;DHT22;38721;53.098;6.596;2023-11-19T03:52:41;12.40;99.90
52859;DHT22;38721;53.098;6.596;2023-11-19T03:55:07;12.40;99.90
52859;DHT22;38721;53.098;6.596;2023-11-19T03:57:37;12.50;99.90
52859;DHT22;38721;53.098;6.596;2023-11-19T04:00:03;12.30;99.90
52859;DHT22;38721;53.098;6.596;2023-11-19T04:02:35;12.30;99.90
52859;DHT22;38721;53.098;6.596;2023-11-19T04:05:01;12.40;99.90
52859;DHT22;38721;53.098;6.596;2023-11-19T04:07:26;12.30;99.90
52859;DHT22;38721;53.098;6.596;2023-11-19T04:09:52;12.30;99.90
52859;DHT22;38721;53.098;6.596;2023-11-19T04:12:18;12.20;99.90
52859;DHT22;38721;53.098;6.596;2023-11-19T04:14:43;12.20;99.90
52859;DHT22;38721;53.098;6.596;2023-11-19T04:17:09;12.10;99.90
52859;DHT22;38721;53.098;6.596;2023-11-19T04:19:35;12.10;99.90
52859;DHT22;38721;53.098;6.596;2023-11-19T04:22:01;12.10;99.90
52859;DHT22;38721;53.098;6.596;2023-11-19T04:24:27;12.20;99.90
52859;DHT22;38721;53.098;6.596;2023-11-19T04:26:53;12.00;99.90
52859;DHT22;38721;53.098;6.596;2023-11-19T04:29:19;12.00;99.90
52859;DHT22;38721;53.098;6.596;2023-11-19T04:31:45;11.90;99.90
52859;DHT22;38721;53.098;6.596;2023-11-19T04:34:11;12.00;99.90
52859;DHT22;38721;53.098;6.596;2023-11-19T04:36:37;11.90;99.90
52859;DHT22;38721;53.098;6.596;2023-11-19T04:39:05;11.90;99.90
52859;DHT22;38721;53.098;6.596;2023-11-19T04:41:35;11.90;99.90
52859;DHT22;38721;53.098;6.596;2023-11-19T04:44:02;11.90;99.90
52859;DHT22;38721;53.098;6.596;2023-11-19T04:46:28;12.00;99.90
52859;DHT22;38721;53.098;6.596;2023-11-19T04:48:53;12.00;99.90
52859;DHT22;38721;53.098;6.596;2023-11-19T04:51:19;12.00;99.90
52859;DHT22;38721;53.098;6.596;2023-11-19T04:53:44;11.90;99.90
52859;DHT22;38721;53.098;6.596;2023-11-19T04:56:11;11.80;99.90
52859;DHT22;38721;53.098;6.596;2023-11-19T04:58:37;11.90;99.90
52859;DHT22;38721;53.098;6.596;2023-11-19T05:01:04;11.90;99.90
52859;DHT22;38721;53.098;6.596;2023-11-19T05:03:31;11.80;99.90
52859;DHT22;38721;53.098;6.596;2023-11-19T05:05:57;11.80;99.90
52859;DHT22;38721;53.098;6.596;2023-11-19T05:08:23;11.80;99.90
52859;DHT22;38721;53.098;6.596;2023-11-19T05:10:48;11.80;99.90
52859;DHT22;38721;53.098;6.596;2023-11-19T05:13:14;11.70;99.90
52859;DHT22;38721;53.098;6.596;2023-11-19T05:15:40;11.80;99.90
52859;DHT22;38721;53.098;6.596;2023-11-19T05:18:06;11.80;99.90
52859;DHT22;38721;53.098;6.596;2023-11-19T05:20:32;11.80;99.90
52859;DHT22;38721;53.098;6.596;2023-11-19T05:22:58;11.80;99.90
52859;DHT22;38721;53.098;6.596;2023-11-19T05:25:26;11.80;99.90
52859;DHT22;38721;53.098;6.596;2023-11-19T05:27:53;11.80;99.90
52859;DHT22;38721;53.098;6.596;2023-11-19T05:30:19;11.80;99.90
52859;DHT22;38721;53.098;6.596;2023-11-19T05:32:45;11.80;99.90
52859;DHT22;38721;53.098;6.596;2023-11-19T05:35:11;11.70;99.90
52859;DHT22;38721;53.098;6.596;2023-11-19T05:37:37;11.80;99.90
52859;DHT22;38721;53.098;6.596;2023-11-19T05:40:03;11.80;99.90
52859;DHT22;38721;53.098;6.596;2023-11-19T05:42:32;11.80;99.90
52859;DHT22;38721;53.098;6.596;2023-11-19T05:44:57;11.80;99.90
52859;DHT22;38721;53.098;6.596;2023-11-19T05:47:23;11.70;99.90
52859;DHT22;38721;53.098;6.596;2023-11-19T05:49:48;11.70;99.90
52859;DHT22;38721;53.098;6.596;2023-11-19T05:52:14;11.70;99.90
52859;DHT22;38721;53.098;6.596;2023-11-19T05:54:40;11.70;99.90
52859;DHT22;38721;53.098;6.596;2023-11-19T05:57:07;11.80;99.90
52859;DHT22;38721;53.098;6.596;2023-11-19T05:59:36;11.70;99.90
52859;DHT22;38721;53.098;6.596;2023-11-19T06:02:02;11.70;99.90
52859;DHT22;38721;53.098;6.596;2023-11-19T06:04:28;11.70;99.90
52859;DHT22;38721;53.098;6.596;2023-11-19T06:06:54;11.60;99.90
52859;DHT22;38721;53.098;6.596;2023-11-19T06:09:21;11.70;99.90
52859;DHT22;38721;53.098;6.596;2023-11-19T06:11:49;11.60;99.90
52859;DHT22;38721;53.098;6.596;2023-11-19T06:14:16;11.60;99.90
52859;DHT22;38721;53.098;6.596;2023-11-19T06:16:42;11.60;99.90
52859;DHT22;38721;53.098;6.596;2023-11-19T06:19:07;11.60;99.90
52859;DHT22;38721;53.098;6.596;2023-11-19T06:21:33;11.60;99.90
52859;DHT22;38721;53.098;6.596;2023-11-19T06:24:00;11.50;99.90
52859;DHT22;38721;53.098;6.596;2023-11-19T06:26:26;11.50;99.90
52859;DHT22;38721;53.098;6.596;2023-11-19T06:28:52;11.60;99.90
52859;DHT22;38721;53.098;6.596;2023-11-19T06:31:18;11.60;99.90
52859;DHT22;38721;53.098;6.596;2023-11-19T06:33:44;11.60;99.90
52859;DHT22;38721;53.098;6.596;2023-11-19T06:36:09;11.60;99.90
52859;DHT22;38721;53.098;6.596;2023-11-19T06:38:35;11.50;99.90
52859;DHT22;38721;53.098;6.596;2023-11-19T06:41:01;11.50;99.90
52859;DHT22;38721;53.098;6.596;2023-11-19T06:43:27;11.50;99.90
52859;DHT22;38721;53.098;6.596;2023-11-19T06:45:54;11.50;99.90
52859;DHT22;38721;53.098;6.596;2023-11-19T06:48:20;11.50;99.90
52859;DHT22;38721;53.098;6.596;2023-11-19T06:50:45;11.50;99.90
52859;DHT22;38721;53.098;6.596;2023-11-19T06:53:11;11.50;99.90
52859;DHT22;38721;53.098;6.596;2023-11-19T06:55:37;11.50;99.90
52859;DHT22;38721;53.098;6.596;2023-11-19T06:58:03;11.50;99.90
52859;DHT22;38721;53.098;6.596;2023-11-19T07:00:29;11.40;99.90
52859;DHT22;38721;53.098;6.596;2023-11-19T07:02:58;11.40;99.90
52859;DHT22;38721;53.098;6.596;2023-11-19T07:05:24;11.40;99.90
52859;DHT22;38721;53.098;6.596;2023-11-19T07:07:49;11.40;99.90
52859;DHT22;38721;53.098;6.596;2023-11-19T07:10:15;11.50;99.90
52859;DHT22;38721;53.098;6.596;2023-11-19T07:12:41;11.40;99.90
52859;DHT22;38721;53.098;6.596;2023-11-19T07:15:09;11.50;99.90
52859;DHT22;38721;53.098;6.596;2023-11-19T07:17:34;11.40;99.90
52859;DHT22;38721;53.098;6.596;2023-11-19T07:20:00;11.30;99.90
52859;DHT22;38721;53.098;6.596;2023-11-19T07:22:26;11.30;99.90
52859;DHT22;38721;53.098;6.596;2023-11-19T07:24:54;11.30;99.90
52859;DHT22;38721;53.098;6.596;2023-11-19T07:27:20;11.40;99.90
52859;DHT22;38721;53.098;6.596;2023-11-19T07:29:46;11.30;99.90
52859;DHT22;38721;53.098;6.596;2023-11-19T07:32:11;11.40;99.90
52859;DHT22;38721;53.098;6.596;2023-11-19T07:34:38;11.30;99.90
52859;DHT22;38721;53.098;6.596;2023-11-19T07:37:05;11.40;99.90
52859;DHT22;38721;53.098;6.596;2023-11-19T07:39:31;11.40;99.90
52859;DHT22;38721;53.098;6.596;2023-11-19T07:41:56;11.30;99.90
52859;DHT22;38721;53.098;6.596;2023-11-19T07:44:22;11.30;99.90
52859;DHT22;38721;53.098;6.596;2023-11-19T07:46:48;11.30;99.90
52859;DHT22;38721;53.098;6.596;2023-11-19T07:49:14;11.30;99.90
52859;DHT22;38721;53.098;6.596;2023-11-19T07:51:39;11.20;99.90
52859;DHT22;38721;53.098;6.596;2023-11-19T07:54:05;11.20;99.90
52859;DHT22;38721;53.098;6.596;2023-11-19T07:56:34;11.30;99.90
52859;DHT22;38721;53.098;6.596;2023-11-19T07:59:04;11.40;99.90
52859;DHT22;38721;53.098;6.596;2023-11-19T08:01:30;11.40;99.90
52859;DHT22;38721;53.098;6.596;2023-11-19T08:03:55;11.40;99.90
52859;DHT22;38721;53.098;6.596;2023-11-19T08:06:21;11.40;99.90
52859;DHT22;38721;53.098;6.596;2023-11-19T08:08:47;11.40;99.90
52859;DHT22;38721;53.098;6.596;2023-11-19T08:11:13;11.50;99.90
52859;DHT22;38721;53.098;6.596;2023-11-19T08:13:40;11.40;99.90
52859;DHT22;38721;53.098;6.596;2023-11-19T08:16:06;11.50;99.90
52859;DHT22;38721;53.098;6.596;2023-11-19T08:18:32;11.50;99.90
52859;DHT22;38721;53.098;6.596;2023-11-19T08:20:57;11.50;99.90
52859;DHT22;38721;53.098;6.596;2023-11-19T08:23:24;11.50;99.90
52859;DHT22;38721;53.098;6.596;2023-11-19T08:25:51;11.50;99.90
52859;DHT22;38721;53.098;6.596;2023-11-19T08:28:17;11.60;99.90
52859;DHT22;38721;53.098;6.596;2023-11-19T08:30:43;11.60;99.90
52859;DHT22;38721;53.098;6.596;2023-11-19T08:33:09;11.60;99.90
52859;DHT22;38721;53.098;6.596;2023-11-19T08:35:35;11.70;99.90
52859;DHT22;38721;53.098;6.596;2023-11-19T08:38:01;11.70;99.90
52859;DHT22;38721;53.098;6.596;2023-11-19T08:40:27;11.70;99.90
52859;DHT22;38721;53.098;6.596;2023-11-19T08:42:53;11.60;99.90
52859;DHT22;38721;53.098;6.596;2023-11-19T08:45:19;11.50;99.90
52859;DHT22;38721;53.098;6.596;2023-11-19T08:47:44;11.40;99.90
52859;DHT22;38721;53.098;6.596;2023-11-19T08:50:11;11.40;99.90
52859;DHT22;38721;53.098;6.596;2023-11-19T08:52:37;11.30;99.90
52859;DHT22;38721;53.098;6.596;2023-11-19T08:55:03;11.30;99.90
52859;DHT22;38721;53.098;6.596;2023-11-19T08:57:31;11.30;99.90
52859;DHT22;38721;53.098;6.596;2023-11-19T08:59:58;11.20;99.90
52859;DHT22;38721;53.098;6.596;2023-11-19T09:02:23;11.30;99.90
52859;DHT22;38721;53.098;6.596;2023-11-19T09:04:49;11.30;99.90
52859;DHT22;38721;53.098;6.596;2023-11-19T09:07:15;11.20;99.90
52859;DHT22;38721;53.098;6.596;2023-11-19T09:09:40;11.30;99.90
52859;DHT22;38721;53.098;6.596;2023-11-19T09:12:06;11.30;99.90
52859;DHT22;38721;53.098;6.596;2023-11-19T09:14:32;11.30;99.90
52859;DHT22;38721;53.098;6.596;2023-11-19T09:16:58;11.40;99.90
52859;DHT22;38721;53.098;6.596;2023-11-19T09:19:25;11.40;99.90
52859;DHT22;38721;53.098;6.596;2023-11-19T09:21:52;11.60;99.90
52859;DHT22;38721;53.098;6.596;2023-11-19T09:24:18;11.60;99.90
52859;DHT22;38721;53.098;6.596;2023-11-19T09:26:44;11.70;99.90
52859;DHT22;38721;53.098;6.596;2023-11-19T09:29:10;11.70;99.90
52859;DHT22;38721;53.098;6.596;2023-11-19T09:31:37;11.80;99.90
52859;DHT22;38721;53.098;6.596;2023-11-19T09:34:03;11.80;99.90
52859;DHT22;38721;53.098;6.596;2023-11-19T09:36:29;11.90;99.90
52859;DHT22;38721;53.098;6.596;2023-11-19T09:38:54;12.00;99.90
52859;DHT22;38721;53.098;6.596;2023-11-19T09:41:20;12.00;99.90
52859;DHT22;38721;53.098;6.596;2023-11-19T09:43:46;11.90;99.90
52859;DHT22;38721;53.098;6.596;2023-11-19T09:46:14;12.00;99.90
52859;DHT22;38721;53.098;6.596;2023-11-19T09:48:41;12.10;99.90
52859;DHT22;38721;53.098;6.596;2023-11-19T09:51:11;12.10;99.90
52859;DHT22;38721;53.098;6.596;2023-11-19T09:53:37;12.10;99.90
52859;DHT22;38721;53.098;6.596;2023-11-19T09:56:05;12.20;99.90
52859;DHT22;38721;53.098;6.596;2023-11-19T09:58:31;12.10;99.90
52859;DHT22;38721;53.098;6.596;2023-11-19T10:00:58;12.10;99.90
52859;DHT22;38721;53.098;6.596;2023-11-19T10:03:26;12.00;99.90
52859;DHT22;38721;53.098;6.596;2023-11-19T10:05:55;12.10;99.90
52859;DHT22;38721;53.098;6.596;2023-11-19T10:08:22;12.10;99.90
52859;DHT22;38721;53.098;6.596;2023-11-19T10:10:48;12.10;99.90
52859;DHT22;38721;53.098;6.596;2023-11-19T10:13:13;12.10;99.90
52859;DHT22;38721;53.098;6.596;2023-11-19T10:15:40;12.20;99.90
52859;DHT22;38721;53.098;6.596;2023-11-19T10:18:06;12.10;99.90
52859;DHT22;38721;53.098;6.596;2023-11-19T10:20:40;12.20;99.90
52859;DHT22;38721;53.098;6.596;2023-11-19T10:23:06;12.10;99.90
52859;DHT22;38721;53.098;6.596;2023-11-19T10:25:33;12.00;99.90
52859;DHT22;38721;53.098;6.596;2023-11-19T10:27:58;12.00;99.90
52859;DHT22;38721;53.098;6.596;2023-11-19T10:30:26;11.90;99.90
52859;DHT22;38721;53.098;6.596;2023-11-19T10:33:08;11.90;99.90
52859;DHT22;38721;53.098;6.596;2023-11-19T10:35:54;11.90;99.90
52859;DHT22;38721;53.098;6.596;2023-11-19T10:38:24;11.90;99.90
52859;DHT22;38721;53.098;6.596;2023-11-19T10:40:51;11.90;99.90
52859;DHT22;38721;53.098;6.596;2023-11-19T10:43:21;11.90;99.90
52859;DHT22;38721;53.098;6.596;2023-11-19T10:45:50;11.90;99.90
52859;DHT22;38721;53.098;6.596;2023-11-19T10:48:16;11.90;99.90
52859;DHT22;38721;53.098;6.596;2023-11-19T10:50:43;12.00;99.90
52859;DHT22;38721;53.098;6.596;2023-11-19T10:53:11;12.00;99.90
52859;DHT22;38721;53.098;6.596;2023-11-19T10:55:39;11.90;99.90
52859;DHT22;38721;53.098;6.596;2023-11-19T10:58:05;11.90;99.90
52859;DHT22;38721;53.098;6.596;2023-11-19T11:00:44;11.80;99.90
52859;DHT22;38721;53.098;6.596;2023-11-19T11:03:24;11.80;99.90
52859;DHT22;38721;53.098;6.596;2023-11-19T11:05:51;11.80;99.90
52859;DHT22;38721;53.098;6.596;2023-11-19T11:08:18;11.80;99.90
52859;DHT22;38721;53.098;6.596;2023-11-19T11:10:52;12.00;99.90
52859;DHT22;38721;53.098;6.596;2023-11-19T11:13:19;12.10;99.90
52859;DHT22;38721;53.098;6.596;2023-11-19T11:15:45;12.20;99.90
52859;DHT22;38721;53.098;6.596;2023-11-19T11:18:12;12.30;99.90
52859;DHT22;38721;53.098;6.596;2023-11-19T11:20:39;12.30;99.90
52859;DHT22;38721;53.098;6.596;2023-11-19T11:28:56;12.30;99.90
52859;DHT22;38721;53.098;6.596;2023-11-19T11:40:14;12.30;99.90
52859;DHT22;38721;53.098;6.596;2023-11-19T11:42:41;12.20;99.90
52859;DHT22;38721;53.098;6.596;2023-11-19T11:45:08;12.20;99.90
52859;DHT22;38721;53.098;6.596;2023-11-19T11:50:15;12.10;99.90
52859;DHT22;38721;53.098;6.596;2023-11-19T11:57:50;12.30;99.90
52859;DHT22;38721;53.098;6.596;2023-11-19T12:00:31;12.20;99.90
52859;DHT22;38721;53.098;6.596;2023-11-19T12:03:00;12.20;99.90
52859;DHT22;38721;53.098;6.596;2023-11-19T12:05:26;12.20;99.90
52859;DHT22;38721;53.098;6.596;2023-11-19T12:07:56;12.20;99.90
52859;DHT22;38721;53.098;6.596;2023-11-19T12:10:25;12.30;99.90
52859;DHT22;38721;53.098;6.596;2023-11-19T12:12:58;12.40;99.90
52859;DHT22;38721;53.098;6.596;2023-11-19T12:15:24;12.30;99.90
52859;DHT22;38721;53.098;6.596;2023-11-19T12:17:52;12.20;99.90
52859;DHT22;38721;53.098;6.596;2023-11-19T12:20:19;12.30;99.90
52859;DHT22;38721;53.098;6.596;2023-11-19T12:22:47;12.20;99.90
52859;DHT22;38721;53.098;6.596;2023-11-19T12:25:15;12.30;99.90
52859;DHT22;38721;53.098;6.596;2023-11-19T12:27:46;12.30;99.90
52859;DHT22;38721;53.098;6.596;2023-11-19T12:30:17;12.20;99.90
52859;DHT22;38721;53.098;6.596;2023-11-19T12:32:46;12.30;99.90
52859;DHT22;38721;53.098;6.596;2023-11-19T12:35:12;12.40;99.90
52859;DHT22;38721;53.098;6.596;2023-11-19T12:37:46;12.50;99.90
52859;DHT22;38721;53.098;6.596;2023-11-19T12:40:19;12.40;99.90
52859;DHT22;38721;53.098;6.596;2023-11-19T12:42:46;12.50;99.90
52859;DHT22;38721;53.098;6.596;2023-11-19T12:45:13;12.50;99.90
52859;DHT22;38721;53.098;6.596;2023-11-19T12:47:45;12.50;99.90
52859;DHT22;38721;53.098;6.596;2023-11-19T12:50:15;12.50;99.90
52859;DHT22;38721;53.098;6.596;2023-11-19T12:52:43;12.50;99.90
52859;DHT22;38721;53.098;6.596;2023-11-19T12:55:28;12.50;99.90
52859;DHT22;38721;53.098;6.596;2023-11-19T12:57:55;12.50;99.90
52859;DHT22;38721;53.098;6.596;2023-11-19T13:00:25;12.60;99.90
52859;DHT22;38721;53.098;6.596;2023-11-19T13:02:56;12.60;99.90
52859;DHT22;38721;53.098;6.596;2023-11-19T13:05:31;12.70;99.90
52859;DHT22;38721;53.098;6.596;2023-11-19T13:08:08;12.80;99.90
52859;DHT22;38721;53.098;6.596;2023-11-19T13:10:53;12.80;99.90
52859;DHT22;38721;53.098;6.596;2023-11-19T13:13:21;12.80;99.90
52859;DHT22;38721;53.098;6.596;2023-11-19T13:15:47;12.70;99.90
52859;DHT22;38721;53.098;6.596;2023-11-19T13:18:16;12.70;99.90
52859;DHT22;38721;53.098;6.596;2023-11-19T13:20:42;12.60;99.90
52859;DHT22;38721;53.098;6.596;2023-11-19T13:23:08;12.60;99.90
52859;DHT22;38721;53.098;6.596;2023-11-19T13:25:34;12.50;99.90
52859;DHT22;38721;53.098;6.596;2023-11-19T13:28:00;12.50;99.90
52859;DHT22;38721;53.098;6.596;2023-11-19T13:30:26;12.50;99.90
52859;DHT22;38721;53.098;6.596;2023-11-19T13:32:52;12.40;99.90
52859;DHT22;38721;53.098;6.596;2023-11-19T13:35:20;12.40;99.90
52859;DHT22;38721;53.098;6.596;2023-11-19T13:37:47;12.40;99.90
52859;DHT22;38721;53.098;6.596;2023-11-19T13:40:13;12.40;99.90
52859;DHT22;38721;53.098;6.596;2023-11-19T13:42:41;12.40;99.90
52859;DHT22;38721;53.098;6.596;2023-11-19T13:45:11;12.40;99.90
52859;DHT22;38721;53.098;6.596;2023-11-19T13:47:43;12.40;99.90
52859;DHT22;38721;53.098;6.596;2023-11-19T13:50:10;12.40;99.90
52859;DHT22;38721;53.098;6.596;2023-11-19T13:52:37;12.40;99.90
52859;DHT22;38721;53.098;6.596;2023-11-19T13:55:07;12.40;99.90
52859;DHT22;38721;53.098;6.596;2023-11-19T13:57:36;12.40;99.90
52859;DHT22;38721;53.098;6.596;2023-11-19T14:00:04;12.40;99.90
52859;DHT22;38721;53.098;6.596;2023-11-19T14:02:33;12.30;99.90
52859;DHT22;38721;53.098;6.596;2023-11-19T14:04:59;12.30;99.90
52859;DHT22;38721;53.098;6.596;2023-11-19T14:07:25;12.30;99.90
52859;DHT22;38721;53.098;6.596;2023-11-19T14:09:51;12.30;99.90
52859;DHT22;38721;53.098;6.596;2023-11-19T14:12:16;12.30;99.90
52859;DHT22;38721;53.098;6.596;2023-11-19T14:14:43;12.20;99.90
52859;DHT22;38721;53.098;6.596;2023-11-19T14:17:09;12.20;99.90
52859;DHT22;38721;53.098;6.596;2023-11-19T14:19:36;12.10;99.90
52859;DHT22;38721;53.098;6.596;2023-11-19T14:22:02;12.10;99.90
52859;DHT22;38721;53.098;6.596;2023-11-19T14:24:28;12.10;99.90
52859;DHT22;38721;53.098;6.596;2023-11-19T14:26:53;12.10;99.90
52859;DHT22;38721;53.098;6.596;2023-11-19T14:29:19;12.00;99.90
52859;DHT22;38721;53.098;6.596;2023-11-19T14:31:44;12.00;99.90
52859;DHT22;38721;53.098;6.596;2023-11-19T14:34:10;12.00;99.90
52859;DHT22;38721;53.098;6.596;2023-11-19T14:36:36;12.00;99.90
52859;DHT22;38721;53.098;6.596;2023-11-19T14:39:02;12.00;99.90
52859;DHT22;38721;53.098;6.596;2023-11-19T14:41:29;11.90;99.90
52859;DHT22;38721;53.098;6.596;2023-11-19T14:43:55;11.90;99.90
52859;DHT22;38721;53.098;6.596;2023-11-19T14:46:20;11.90;99.90
52859;DHT22;38721;53.098;6.596;2023-11-19T14:48:46;11.90;99.90
52859;DHT22;38721;53.098;6.596;2023-11-19T14:51:11;11.80;99.90
52859;DHT22;38721;53.098;6.596;2023-11-19T14:53:38;11.90;99.90
52859;DHT22;38721;53.098;6.596;2023-11-19T14:56:04;11.90;99.90
52859;DHT22;38721;53.098;6.596;2023-11-19T14:58:32;11.90;99.90
52859;DHT22;38721;53.098;6.596;2023-11-19T15:00:58;11.80;99.90
52859;DHT22;38721;53.098;6.596;2023-11-19T15:03:23;11.80;99.90
52859;DHT22;38721;53.098;6.596;2023-11-19T15:05:49;11.90;99.90
52859;DHT22;38721;53.098;6.596;2023-11-19T15:08:16;11.80;99.90
52859;DHT22;38721;53.098;6.596;2023-11-19T15:10:42;11.80;99.90
52859;DHT22;38721;53.098;6.596;2023-11-19T15:13:08;11.80;99.90
52859;DHT22;38721;53.098;6.596;2023-11-19T15:15:34;11.80;99.90
52859;DHT22;38721;53.098;6.596;2023-11-19T15:18:00;11.80;99.90
52859;DHT22;38721;53.098;6.596;2023-11-19T15:20:26;11.80;99.90
52859;DHT22;38721;53.098;6.596;2023-11-19T15:22:55;11.80;99.90
52859;DHT22;38721;53.098;6.596;2023-11-19T15:25:21;11.80;99.90
52859;DHT22;38721;53.098;6.596;2023-11-19T15:27:48;11.70;99.90
52859;DHT22;38721;53.098;6.596;2023-11-19T15:30:14;11.80;99.90
52859;DHT22;38721;53.098;6.596;2023-11-19T15:32:41;11.70;99.90
52859;DHT22;38721;53.098;6.596;2023-11-19T15:35:08;11.80;99.90
52859;DHT22;38721;53.098;6.596;2023-11-19T15:37:35;11.70;99.90
52859;DHT22;38721;53.098;6.596;2023-11-19T15:40:01;11.70;99.90
52859;DHT22;38721;53.098;6.596;2023-11-19T15:42:29;11.60;99.90
52859;DHT22;38721;53.098;6.596;2023-11-19T15:44:55;11.60;99.90
52859;DHT22;38721;53.098;6.596;2023-11-19T15:47:21;11.60;99.90
52859;DHT22;38721;53.098;6.596;2023-11-19T15:49:47;11.60;99.90
52859;DHT22;38721;53.098;6.596;2023-11-19T15:52:17;11.50;99.90